SLW weather

Plan De Guadalupe International Airport
Saltillo, Coahuila, Mexico

Public forecast

Using degrees Celsius for public forecast. Weather courtesy of forecast.io.

METAR (pilot weather report)

Retrieved 2019/04/19 23:40 UTC (13 minutes ago):

MMIO 192340Z 04015KT 10SM BKN200 25/08 A3021 RMK 8/008

TAF (pilot weather forecast)

Retrieved 2019/04/19 18:22 UTC (6 hours ago):

TAF MMIO 191715Z 1918/2018 03015KT P6SM SCT250 BECMG 2002/2003 00000KT FM201500 14010KT P6SM SCT260